sensor_id;sensor_type;location;lat;lon;timestamp;P1;durP1;ratioP1;P2;durP2;ratioP2
18334;SDS011;9293;49.524;10.964;2024-01-10T00:00:48;18.92;;;8.63;;
18334;SDS011;9293;49.524;10.964;2024-01-10T00:03:16;16.52;;;7.70;;
18334;SDS011;9293;49.524;10.964;2024-01-10T00:05:45;21.52;;;8.35;;
18334;SDS011;9293;49.524;10.964;2024-01-10T00:08:13;18.17;;;8.48;;
18334;SDS011;9293;49.524;10.964;2024-01-10T00:10:42;15.75;;;7.22;;
18334;SDS011;9293;49.524;10.964;2024-01-10T00:13:10;22.63;;;8.85;;
18334;SDS011;9293;49.524;10.964;2024-01-10T00:15:38;13.68;;;7.88;;
18334;SDS011;9293;49.524;10.964;2024-01-10T00:18:06;17.13;;;8.15;;
18334;SDS011;9293;49.524;10.964;2024-01-10T00:20:35;15.43;;;7.63;;
18334;SDS011;9293;49.524;10.964;2024-01-10T00:23:03;15.73;;;7.88;;
18334;SDS011;9293;49.524;10.964;2024-01-10T00:25:32;15.20;;;8.05;;
18334;SDS011;9293;49.524;10.964;2024-01-10T00:28:01;14.75;;;8.07;;
18334;SDS011;9293;49.524;10.964;2024-01-10T00:30:29;13.80;;;7.90;;
18334;SDS011;9293;49.524;10.964;2024-01-10T00:32:57;14.23;;;8.13;;
18334;SDS011;9293;49.524;10.964;2024-01-10T00:35:26;14.70;;;7.38;;
18334;SDS011;9293;49.524;10.964;2024-01-10T00:37:54;13.68;;;7.30;;
18334;SDS011;9293;49.524;10.964;2024-01-10T00:40:22;15.15;;;7.85;;
18334;SDS011;9293;49.524;10.964;2024-01-10T00:42:51;14.00;;;7.75;;
18334;SDS011;9293;49.524;10.964;2024-01-10T00:45:19;13.40;;;7.88;;
18334;SDS011;9293;49.524;10.964;2024-01-10T00:47:48;14.77;;;7.60;;
18334;SDS011;9293;49.524;10.964;2024-01-10T00:50:17;14.65;;;7.47;;
18334;SDS011;9293;49.524;10.964;2024-01-10T00:52:45;13.95;;;7.82;;
18334;SDS011;9293;49.524;10.964;2024-01-10T00:55:14;14.25;;;8.18;;
18334;SDS011;9293;49.524;10.964;2024-01-10T00:57:42;15.25;;;7.75;;
18334;SDS011;9293;49.524;10.964;2024-01-10T01:00:11;14.63;;;7.80;;
18334;SDS011;9293;49.524;10.964;2024-01-10T01:02:40;14.65;;;8.52;;
18334;SDS011;9293;49.524;10.964;2024-01-10T01:05:08;16.27;;;8.93;;
18334;SDS011;9293;49.524;10.964;2024-01-10T01:07:37;17.90;;;8.77;;
18334;SDS011;9293;49.524;10.964;2024-01-10T01:10:05;17.98;;;8.82;;
18334;SDS011;9293;49.524;10.964;2024-01-10T01:12:36;19.83;;;9.15;;
18334;SDS011;9293;49.524;10.964;2024-01-10T01:15:05;19.13;;;8.52;;
18334;SDS011;9293;49.524;10.964;2024-01-10T01:17:34;19.77;;;9.73;;
18334;SDS011;9293;49.524;10.964;2024-01-10T01:20:02;20.48;;;10.43;;
18334;SDS011;9293;49.524;10.964;2024-01-10T01:22:32;23.03;;;11.33;;
18334;SDS011;9293;49.524;10.964;2024-01-10T01:25:00;31.45;;;14.25;;
18334;SDS011;9293;49.524;10.964;2024-01-10T01:27:29;32.55;;;15.40;;
18334;SDS011;9293;49.524;10.964;2024-01-10T01:29:57;35.78;;;17.58;;
18334;SDS011;9293;49.524;10.964;2024-01-10T01:32:25;44.25;;;18.88;;
18334;SDS011;9293;49.524;10.964;2024-01-10T01:34:54;29.55;;;14.48;;
18334;SDS011;9293;49.524;10.964;2024-01-10T01:37:22;29.83;;;13.48;;
18334;SDS011;9293;49.524;10.964;2024-01-10T01:39:50;21.17;;;10.50;;
18334;SDS011;9293;49.524;10.964;2024-01-10T01:42:20;20.40;;;10.02;;
18334;SDS011;9293;49.524;10.964;2024-01-10T01:44:51;18.58;;;10.02;;
18334;SDS011;9293;49.524;10.964;2024-01-10T01:49:49;15.73;;;8.20;;
18334;SDS011;9293;49.524;10.964;2024-01-10T01:52:17;15.18;;;8.13;;
18334;SDS011;9293;49.524;10.964;2024-01-10T01:54:45;15.35;;;7.93;;
18334;SDS011;9293;49.524;10.964;2024-01-10T01:57:15;14.75;;;8.20;;
18334;SDS011;9293;49.524;10.964;2024-01-10T01:59:43;16.67;;;8.35;;
18334;SDS011;9293;49.524;10.964;2024-01-10T02:02:12;14.43;;;7.85;;
18334;SDS011;9293;49.524;10.964;2024-01-10T02:04:42;17.07;;;7.97;;
18334;SDS011;9293;49.524;10.964;2024-01-10T02:07:11;15.93;;;8.32;;
18334;SDS011;9293;49.524;10.964;2024-01-10T02:09:40;18.38;;;8.38;;
18334;SDS011;9293;49.524;10.964;2024-01-10T02:12:08;14.32;;;7.63;;
18334;SDS011;9293;49.524;10.964;2024-01-10T02:14:36;15.05;;;8.02;;
18334;SDS011;9293;49.524;10.964;2024-01-10T02:17:05;14.88;;;7.82;;
18334;SDS011;9293;49.524;10.964;2024-01-10T02:19:33;16.85;;;7.95;;
18334;SDS011;9293;49.524;10.964;2024-01-10T02:22:02;16.17;;;8.25;;
18334;SDS011;9293;49.524;10.964;2024-01-10T02:24:32;15.05;;;8.05;;
18334;SDS011;9293;49.524;10.964;2024-01-10T02:27:00;16.92;;;9.23;;
18334;SDS011;9293;49.524;10.964;2024-01-10T02:29:29;17.00;;;8.45;;
18334;SDS011;9293;49.524;10.964;2024-01-10T02:31:58;17.80;;;8.77;;
18334;SDS011;9293;49.524;10.964;2024-01-10T02:34:27;16.23;;;9.13;;
18334;SDS011;9293;49.524;10.964;2024-01-10T02:36:57;13.25;;;7.63;;
18334;SDS011;9293;49.524;10.964;2024-01-10T02:39:25;16.45;;;8.45;;
18334;SDS011;9293;49.524;10.964;2024-01-10T02:41:54;15.88;;;8.50;;
18334;SDS011;9293;49.524;10.964;2024-01-10T02:44:22;16.40;;;8.00;;
18334;SDS011;9293;49.524;10.964;2024-01-10T02:46:50;16.27;;;8.25;;
18334;SDS011;9293;49.524;10.964;2024-01-10T02:49:19;16.80;;;8.85;;
18334;SDS011;9293;49.524;10.964;2024-01-10T02:51:48;17.13;;;8.38;;
18334;SDS011;9293;49.524;10.964;2024-01-10T02:54:16;16.73;;;8.60;;
18334;SDS011;9293;49.524;10.964;2024-01-10T02:56:44;17.63;;;8.63;;
18334;SDS011;9293;49.524;10.964;2024-01-10T02:59:13;15.02;;;8.63;;
18334;SDS011;9293;49.524;10.964;2024-01-10T03:01:41;15.45;;;8.88;;
18334;SDS011;9293;49.524;10.964;2024-01-10T03:04:11;14.63;;;8.65;;
18334;SDS011;9293;49.524;10.964;2024-01-10T03:06:39;20.67;;;10.02;;
18334;SDS011;9293;49.524;10.964;2024-01-10T03:09:07;18.15;;;10.02;;
18334;SDS011;9293;49.524;10.964;2024-01-10T03:11:36;23.45;;;10.60;;
18334;SDS011;9293;49.524;10.964;2024-01-10T03:14:08;18.10;;;9.68;;
18334;SDS011;9293;49.524;10.964;2024-01-10T03:16:40;21.52;;;10.20;;
18334;SDS011;9293;49.524;10.964;2024-01-10T03:19:11;15.98;;;9.05;;
18334;SDS011;9293;49.524;10.964;2024-01-10T03:21:40;17.80;;;9.55;;
18334;SDS011;9293;49.524;10.964;2024-01-10T03:24:09;19.77;;;10.50;;
18334;SDS011;9293;49.524;10.964;2024-01-10T03:26:37;18.00;;;9.38;;
18334;SDS011;9293;49.524;10.964;2024-01-10T03:29:05;17.67;;;9.50;;
18334;SDS011;9293;49.524;10.964;2024-01-10T03:31:34;16.40;;;8.90;;
18334;SDS011;9293;49.524;10.964;2024-01-10T03:34:03;16.83;;;8.95;;
18334;SDS011;9293;49.524;10.964;2024-01-10T03:36:32;18.95;;;8.85;;
18334;SDS011;9293;49.524;10.964;2024-01-10T03:39:00;15.98;;;8.88;;
18334;SDS011;9293;49.524;10.964;2024-01-10T03:41:28;18.10;;;9.65;;
18334;SDS011;9293;49.524;10.964;2024-01-10T03:43:56;15.43;;;8.38;;
18334;SDS011;9293;49.524;10.964;2024-01-10T03:46:25;18.63;;;9.10;;
18334;SDS011;9293;49.524;10.964;2024-01-10T03:48:53;18.83;;;9.75;;
18334;SDS011;9293;49.524;10.964;2024-01-10T03:51:21;20.80;;;9.82;;
18334;SDS011;9293;49.524;10.964;2024-01-10T03:53:50;20.17;;;9.80;;
18334;SDS011;9293;49.524;10.964;2024-01-10T03:56:19;15.82;;;9.00;;
18334;SDS011;9293;49.524;10.964;2024-01-10T03:58:47;19.25;;;9.55;;
18334;SDS011;9293;49.524;10.964;2024-01-10T04:01:16;18.55;;;9.50;;
18334;SDS011;9293;49.524;10.964;2024-01-10T04:03:45;20.25;;;8.93;;
18334;SDS011;9293;49.524;10.964;2024-01-10T04:06:13;17.00;;;9.05;;
18334;SDS011;9293;49.524;10.964;2024-01-10T04:08:41;23.90;;;9.85;;
18334;SDS011;9293;49.524;10.964;2024-01-10T04:11:10;15.57;;;8.57;;
18334;SDS011;9293;49.524;10.964;2024-01-10T04:13:38;15.52;;;8.38;;
18334;SDS011;9293;49.524;10.964;2024-01-10T04:16:07;17.67;;;9.02;;
18334;SDS011;9293;49.524;10.964;2024-01-10T04:18:35;18.67;;;9.55;;
18334;SDS011;9293;49.524;10.964;2024-01-10T04:21:04;17.25;;;9.70;;
18334;SDS011;9293;49.524;10.964;2024-01-10T04:23:32;17.55;;;8.98;;
18334;SDS011;9293;49.524;10.964;2024-01-10T04:26:01;16.60;;;9.23;;
18334;SDS011;9293;49.524;10.964;2024-01-10T04:28:30;19.17;;;9.32;;
18334;SDS011;9293;49.524;10.964;2024-01-10T04:30:59;20.95;;;9.45;;
18334;SDS011;9293;49.524;10.964;2024-01-10T04:33:27;15.70;;;8.65;;
18334;SDS011;9293;49.524;10.964;2024-01-10T04:35:56;15.90;;;8.90;;
18334;SDS011;9293;49.524;10.964;2024-01-10T04:38:24;17.52;;;9.38;;
18334;SDS011;9293;49.524;10.964;2024-01-10T04:40:54;17.95;;;8.77;;
18334;SDS011;9293;49.524;10.964;2024-01-10T04:43:22;18.10;;;9.13;;
18334;SDS011;9293;49.524;10.964;2024-01-10T04:45:50;17.23;;;9.48;;
18334;SDS011;9293;49.524;10.964;2024-01-10T04:48:19;19.52;;;9.85;;
18334;SDS011;9293;49.524;10.964;2024-01-10T04:50:47;15.20;;;8.43;;
18334;SDS011;9293;49.524;10.964;2024-01-10T04:53:15;19.20;;;9.40;;
18334;SDS011;9293;49.524;10.964;2024-01-10T04:55:44;18.00;;;9.25;;
18334;SDS011;9293;49.524;10.964;2024-01-10T04:58:17;16.48;;;8.60;;
18334;SDS011;9293;49.524;10.964;2024-01-10T05:00:47;18.48;;;9.13;;
18334;SDS011;9293;49.524;10.964;2024-01-10T05:03:16;17.42;;;9.73;;
18334;SDS011;9293;49.524;10.964;2024-01-10T05:05:49;17.58;;;10.40;;
18334;SDS011;9293;49.524;10.964;2024-01-10T05:08:24;18.50;;;9.40;;
18334;SDS011;9293;49.524;10.964;2024-01-10T05:10:54;16.50;;;9.50;;
18334;SDS011;9293;49.524;10.964;2024-01-10T05:13:26;20.73;;;9.57;;
18334;SDS011;9293;49.524;10.964;2024-01-10T05:15:55;16.77;;;9.20;;
18334;SDS011;9293;49.524;10.964;2024-01-10T05:18:24;17.95;;;9.20;;
18334;SDS011;9293;49.524;10.964;2024-01-10T05:20:54;15.05;;;8.82;;
18334;SDS011;9293;49.524;10.964;2024-01-10T05:23:23;17.75;;;9.43;;
18334;SDS011;9293;49.524;10.964;2024-01-10T05:25:51;18.98;;;10.18;;
18334;SDS011;9293;49.524;10.964;2024-01-10T05:28:20;18.10;;;10.57;;
18334;SDS011;9293;49.524;10.964;2024-01-10T05:30:49;16.17;;;8.90;;
18334;SDS011;9293;49.524;10.964;2024-01-10T05:33:17;21.70;;;9.75;;
18334;SDS011;9293;49.524;10.964;2024-01-10T05:35:46;19.38;;;9.90;;
18334;SDS011;9293;49.524;10.964;2024-01-10T05:38:15;18.13;;;9.60;;
18334;SDS011;9293;49.524;10.964;2024-01-10T05:40:43;18.23;;;10.07;;
18334;SDS011;9293;49.524;10.964;2024-01-10T05:43:14;20.17;;;10.65;;
18334;SDS011;9293;49.524;10.964;2024-01-10T05:48:11;20.05;;;10.63;;
18334;SDS011;9293;49.524;10.964;2024-01-10T05:50:39;17.70;;;9.93;;
18334;SDS011;9293;49.524;10.964;2024-01-10T05:53:08;20.27;;;10.27;;
18334;SDS011;9293;49.524;10.964;2024-01-10T05:55:38;18.67;;;10.40;;
18334;SDS011;9293;49.524;10.964;2024-01-10T05:58:06;21.95;;;10.55;;
18334;SDS011;9293;49.524;10.964;2024-01-10T06:00:37;21.65;;;10.90;;
18334;SDS011;9293;49.524;10.964;2024-01-10T06:03:05;20.55;;;10.18;;
18334;SDS011;9293;49.524;10.964;2024-01-10T06:05:35;18.23;;;10.82;;
18334;SDS011;9293;49.524;10.964;2024-01-10T06:08:03;23.90;;;10.85;;
18334;SDS011;9293;49.524;10.964;2024-01-10T06:10:32;18.27;;;10.02;;
18334;SDS011;9293;49.524;10.964;2024-01-10T06:13:06;17.80;;;9.43;;
18334;SDS011;9293;49.524;10.964;2024-01-10T06:15:35;19.85;;;9.80;;
18334;SDS011;9293;49.524;10.964;2024-01-10T06:18:06;19.73;;;10.38;;
18334;SDS011;9293;49.524;10.964;2024-01-10T06:20:35;21.60;;;10.60;;
18334;SDS011;9293;49.524;10.964;2024-01-10T06:23:05;16.73;;;9.55;;
18334;SDS011;9293;49.524;10.964;2024-01-10T06:25:34;19.10;;;10.52;;
18334;SDS011;9293;49.524;10.964;2024-01-10T06:28:02;17.63;;;9.48;;
18334;SDS011;9293;49.524;10.964;2024-01-10T06:30:30;19.25;;;10.63;;
18334;SDS011;9293;49.524;10.964;2024-01-10T06:33:00;20.88;;;9.90;;
18334;SDS011;9293;49.524;10.964;2024-01-10T06:35:28;17.13;;;9.50;;
18334;SDS011;9293;49.524;10.964;2024-01-10T06:37:57;18.10;;;9.75;;
18334;SDS011;9293;49.524;10.964;2024-01-10T06:40:26;20.83;;;10.23;;
18334;SDS011;9293;49.524;10.964;2024-01-10T06:42:54;18.80;;;10.18;;
18334;SDS011;9293;49.524;10.964;2024-01-10T06:45:22;18.88;;;11.15;;
18334;SDS011;9293;49.524;10.964;2024-01-10T06:47:50;18.75;;;10.93;;
18334;SDS011;9293;49.524;10.964;2024-01-10T06:50:19;21.15;;;10.38;;
18334;SDS011;9293;49.524;10.964;2024-01-10T06:52:48;25.30;;;11.57;;
18334;SDS011;9293;49.524;10.964;2024-01-10T06:55:16;20.98;;;11.10;;
18334;SDS011;9293;49.524;10.964;2024-01-10T06:57:46;22.45;;;11.18;;
18334;SDS011;9293;49.524;10.964;2024-01-10T07:00:16;24.55;;;11.93;;
18334;SDS011;9293;49.524;10.964;2024-01-10T07:02:45;22.75;;;12.52;;
18334;SDS011;9293;49.524;10.964;2024-01-10T07:05:13;26.35;;;14.50;;
18334;SDS011;9293;49.524;10.964;2024-01-10T07:07:42;31.25;;;14.18;;
18334;SDS011;9293;49.524;10.964;2024-01-10T07:10:11;30.00;;;15.80;;
18334;SDS011;9293;49.524;10.964;2024-01-10T07:12:39;37.40;;;17.95;;
18334;SDS011;9293;49.524;10.964;2024-01-10T07:15:07;34.97;;;17.80;;
18334;SDS011;9293;49.524;10.964;2024-01-10T07:17:37;36.97;;;17.27;;
18334;SDS011;9293;49.524;10.964;2024-01-10T07:20:06;27.30;;;17.05;;
18334;SDS011;9293;49.524;10.964;2024-01-10T07:22:36;27.35;;;15.40;;
18334;SDS011;9293;49.524;10.964;2024-01-10T07:25:04;30.65;;;15.32;;
18334;SDS011;9293;49.524;10.964;2024-01-10T07:27:34;26.65;;;14.55;;
18334;SDS011;9293;49.524;10.964;2024-01-10T07:30:05;29.73;;;14.48;;
18334;SDS011;9293;49.524;10.964;2024-01-10T07:32:44;24.75;;;13.77;;
18334;SDS011;9293;49.524;10.964;2024-01-10T07:35:13;27.70;;;13.82;;
18334;SDS011;9293;49.524;10.964;2024-01-10T07:37:42;22.60;;;13.68;;
18334;SDS011;9293;49.524;10.964;2024-01-10T07:40:11;24.15;;;13.77;;
18334;SDS011;9293;49.524;10.964;2024-01-10T07:42:40;23.13;;;13.95;;
18334;SDS011;9293;49.524;10.964;2024-01-10T07:45:10;25.55;;;13.63;;
18334;SDS011;9293;49.524;10.964;2024-01-10T07:47:38;26.45;;;13.38;;
18334;SDS011;9293;49.524;10.964;2024-01-10T07:50:07;24.38;;;13.00;;
18334;SDS011;9293;49.524;10.964;2024-01-10T07:52:36;23.83;;;13.60;;
18334;SDS011;9293;49.524;10.964;2024-01-10T07:55:05;24.13;;;12.60;;
18334;SDS011;9293;49.524;10.964;2024-01-10T07:57:34;25.92;;;13.45;;
18334;SDS011;9293;49.524;10.964;2024-01-10T08:00:03;24.75;;;12.80;;
18334;SDS011;9293;49.524;10.964;2024-01-10T08:02:41;22.42;;;11.90;;
18334;SDS011;9293;49.524;10.964;2024-01-10T08:05:09;21.50;;;12.32;;
18334;SDS011;9293;49.524;10.964;2024-01-10T08:07:37;27.50;;;12.85;;
18334;SDS011;9293;49.524;10.964;2024-01-10T08:10:06;22.35;;;11.98;;
18334;SDS011;9293;49.524;10.964;2024-01-10T08:12:38;22.10;;;12.02;;
18334;SDS011;9293;49.524;10.964;2024-01-10T08:15:07;21.75;;;11.10;;
18334;SDS011;9293;49.524;10.964;2024-01-10T08:17:35;21.25;;;11.70;;
18334;SDS011;9293;49.524;10.964;2024-01-10T08:20:05;21.00;;;11.32;;
18334;SDS011;9293;49.524;10.964;2024-01-10T08:22:38;21.33;;;12.40;;
18334;SDS011;9293;49.524;10.964;2024-01-10T08:25:08;25.45;;;11.95;;
18334;SDS011;9293;49.524;10.964;2024-01-10T08:27:36;23.50;;;12.73;;
18334;SDS011;9293;49.524;10.964;2024-01-10T08:30:07;23.40;;;11.88;;
18334;SDS011;9293;49.524;10.964;2024-01-10T08:32:37;25.33;;;12.67;;
18334;SDS011;9293;49.524;10.964;2024-01-10T08:35:06;23.02;;;12.32;;
18334;SDS011;9293;49.524;10.964;2024-01-10T08:37:44;21.73;;;11.82;;
18334;SDS011;9293;49.524;10.964;2024-01-10T08:40:14;24.88;;;12.93;;
18334;SDS011;9293;49.524;10.964;2024-01-10T08:42:43;23.13;;;12.73;;
18334;SDS011;9293;49.524;10.964;2024-01-10T08:45:11;24.67;;;12.63;;
18334;SDS011;9293;49.524;10.964;2024-01-10T08:47:40;29.13;;;12.52;;
18334;SDS011;9293;49.524;10.964;2024-01-10T08:50:08;24.20;;;12.25;;
18334;SDS011;9293;49.524;10.964;2024-01-10T08:52:37;27.85;;;13.30;;
18334;SDS011;9293;49.524;10.964;2024-01-10T08:55:06;22.88;;;12.32;;
18334;SDS011;9293;49.524;10.964;2024-01-10T08:57:39;22.35;;;11.50;;
18334;SDS011;9293;49.524;10.964;2024-01-10T09:00:08;21.42;;;12.20;;
18334;SDS011;9293;49.524;10.964;2024-01-10T09:02:39;22.85;;;11.90;;
18334;SDS011;9293;49.524;10.964;2024-01-10T09:05:07;24.98;;;13.57;;
18334;SDS011;9293;49.524;10.964;2024-01-10T09:07:38;24.60;;;13.10;;
18334;SDS011;9293;49.524;10.964;2024-01-10T09:10:06;22.17;;;12.00;;
18334;SDS011;9293;49.524;10.964;2024-01-10T09:12:35;24.60;;;12.48;;
18334;SDS011;9293;49.524;10.964;2024-01-10T09:15:04;22.23;;;12.25;;
18334;SDS011;9293;49.524;10.964;2024-01-10T09:17:35;20.98;;;12.35;;
18334;SDS011;9293;49.524;10.964;2024-01-10T09:20:04;25.80;;;13.75;;
18334;SDS011;9293;49.524;10.964;2024-01-10T09:22:32;21.88;;;12.13;;
18334;SDS011;9293;49.524;10.964;2024-01-10T09:25:01;22.33;;;12.18;;
18334;SDS011;9293;49.524;10.964;2024-01-10T09:27:31;21.48;;;12.20;;
18334;SDS011;9293;49.524;10.964;2024-01-10T09:30:01;22.45;;;11.82;;
18334;SDS011;9293;49.524;10.964;2024-01-10T09:32:30;26.13;;;13.10;;
18334;SDS011;9293;49.524;10.964;2024-01-10T09:34:59;21.52;;;11.65;;
18334;SDS011;9293;49.524;10.964;2024-01-10T09:37:27;22.70;;;11.70;;
18334;SDS011;9293;49.524;10.964;2024-01-10T09:39:56;24.85;;;12.95;;
18334;SDS011;9293;49.524;10.964;2024-01-10T09:42:24;23.52;;;12.55;;
18334;SDS011;9293;49.524;10.964;2024-01-10T09:45:03;23.08;;;12.38;;
18334;SDS011;9293;49.524;10.964;2024-01-10T09:47:33;24.10;;;13.25;;
18334;SDS011;9293;49.524;10.964;2024-01-10T09:50:05;21.05;;;12.32;;
18334;SDS011;9293;49.524;10.964;2024-01-10T09:52:38;25.63;;;12.98;;
18334;SDS011;9293;49.524;10.964;2024-01-10T09:55:11;21.52;;;12.02;;
18334;SDS011;9293;49.524;10.964;2024-01-10T09:57:41;22.92;;;12.15;;
18334;SDS011;9293;49.524;10.964;2024-01-10T10:00:10;21.42;;;12.27;;
18334;SDS011;9293;49.524;10.964;2024-01-10T10:02:39;21.40;;;11.77;;
18334;SDS011;9293;49.524;10.964;2024-01-10T10:05:09;24.13;;;11.88;;
18334;SDS011;9293;49.524;10.964;2024-01-10T10:07:45;20.55;;;12.15;;
18334;SDS011;9293;49.524;10.964;2024-01-10T10:10:15;24.63;;;12.48;;
18334;SDS011;9293;49.524;10.964;2024-01-10T10:12:45;26.95;;;13.30;;
18334;SDS011;9293;49.524;10.964;2024-01-10T10:15:18;20.17;;;12.27;;
18334;SDS011;9293;49.524;10.964;2024-01-10T10:17:50;21.52;;;13.18;;
18334;SDS011;9293;49.524;10.964;2024-01-10T10:20:25;26.67;;;13.50;;
18334;SDS011;9293;49.524;10.964;2024-01-10T10:25:45;26.20;;;13.18;;
18334;SDS011;9293;49.524;10.964;2024-01-10T10:28:15;24.10;;;13.20;;
18334;SDS011;9293;49.524;10.964;2024-01-10T10:30:55;22.10;;;12.63;;
18334;SDS011;9293;49.524;10.964;2024-01-10T10:33:23;22.38;;;12.63;;
18334;SDS011;9293;49.524;10.964;2024-01-10T10:35:52;24.60;;;13.73;;
18334;SDS011;9293;49.524;10.964;2024-01-10T10:38:21;22.48;;;12.45;;
18334;SDS011;9293;49.524;10.964;2024-01-10T10:40:50;22.80;;;12.70;;
18334;SDS011;9293;49.524;10.964;2024-01-10T10:43:19;22.25;;;12.52;;
18334;SDS011;9293;49.524;10.964;2024-01-10T10:45:49;25.23;;;12.85;;
18334;SDS011;9293;49.524;10.964;2024-01-10T10:48:18;23.52;;;12.40;;
18334;SDS011;9293;49.524;10.964;2024-01-10T10:51:35;22.42;;;12.02;;
18334;SDS011;9293;49.524;10.964;2024-01-10T10:53:45;23.15;;;13.55;;
18334;SDS011;9293;49.524;10.964;2024-01-10T10:56:15;21.25;;;11.93;;
18334;SDS011;9293;49.524;10.964;2024-01-10T10:58:44;20.73;;;11.30;;
18334;SDS011;9293;49.524;10.964;2024-01-10T11:01:14;23.55;;;13.90;;
18334;SDS011;9293;49.524;10.964;2024-01-10T11:03:43;24.20;;;13.65;;
18334;SDS011;9293;49.524;10.964;2024-01-10T11:06:12;24.92;;;12.63;;
18334;SDS011;9293;49.524;10.964;2024-01-10T11:08:45;21.08;;;11.95;;
18334;SDS011;9293;49.524;10.964;2024-01-10T11:11:34;21.17;;;12.63;;
18334;SDS011;9293;49.524;10.964;2024-01-10T11:14:18;36.83;;;13.18;;
18334;SDS011;9293;49.524;10.964;2024-01-10T11:17:14;20.15;;;11.52;;
18334;SDS011;9293;49.524;10.964;2024-01-10T11:23:27;21.83;;;12.02;;
18334;SDS011;9293;49.524;10.964;2024-01-10T11:26:05;22.52;;;12.25;;
18334;SDS011;9293;49.524;10.964;2024-01-10T11:28:35;20.80;;;12.55;;
18334;SDS011;9293;49.524;10.964;2024-01-10T11:31:06;20.45;;;12.60;;
18334;SDS011;9293;49.524;10.964;2024-01-10T11:33:36;19.23;;;11.35;;
18334;SDS011;9293;49.524;10.964;2024-01-10T11:38:43;18.73;;;11.45;;
18334;SDS011;9293;49.524;10.964;2024-01-10T11:41:12;22.98;;;12.88;;
18334;SDS011;9293;49.524;10.964;2024-01-10T11:46:48;21.88;;;11.88;;
18334;SDS011;9293;49.524;10.964;2024-01-10T11:49:19;21.27;;;12.68;;
18334;SDS011;9293;49.524;10.964;2024-01-10T11:51:49;23.38;;;11.60;;
18334;SDS011;9293;49.524;10.964;2024-01-10T11:57:11;25.42;;;12.90;;
18334;SDS011;9293;49.524;10.964;2024-01-10T11:59:42;21.27;;;12.43;;
18334;SDS011;9293;49.524;10.964;2024-01-10T12:02:14;19.88;;;11.77;;
18334;SDS011;9293;49.524;10.964;2024-01-10T12:04:47;21.35;;;12.32;;
18334;SDS011;9293;49.524;10.964;2024-01-10T12:07:16;20.30;;;11.55;;
18334;SDS011;9293;49.524;10.964;2024-01-10T12:09:47;20.45;;;12.75;;
18334;SDS011;9293;49.524;10.964;2024-01-10T12:12:15;20.90;;;12.93;;
18334;SDS011;9293;49.524;10.964;2024-01-10T12:14:44;23.27;;;12.95;;
18334;SDS011;9293;49.524;10.964;2024-01-10T12:17:13;21.92;;;11.68;;
18334;SDS011;9293;49.524;10.964;2024-01-10T12:19:41;18.65;;;11.30;;
18334;SDS011;9293;49.524;10.964;2024-01-10T12:24:47;20.77;;;12.15;;
18334;SDS011;9293;49.524;10.964;2024-01-10T12:27:20;20.50;;;11.93;;
18334;SDS011;9293;49.524;10.964;2024-01-10T12:29:50;20.13;;;12.40;;
18334;SDS011;9293;49.524;10.964;2024-01-10T12:32:20;18.17;;;11.48;;
18334;SDS011;9293;49.524;10.964;2024-01-10T12:34:54;21.52;;;12.18;;
18334;SDS011;9293;49.524;10.964;2024-01-10T12:37:27;20.10;;;12.48;;
18334;SDS011;9293;49.524;10.964;2024-01-10T12:39:55;22.80;;;12.60;;
18334;SDS011;9293;49.524;10.964;2024-01-10T12:42:24;19.67;;;12.15;;
18334;SDS011;9293;49.524;10.964;2024-01-10T12:44:53;19.38;;;12.55;;
18334;SDS011;9293;49.524;10.964;2024-01-10T12:47:22;25.10;;;13.30;;
18334;SDS011;9293;49.524;10.964;2024-01-10T12:49:51;20.40;;;12.45;;
18334;SDS011;9293;49.524;10.964;2024-01-10T12:52:21;21.20;;;12.70;;
18334;SDS011;9293;49.524;10.964;2024-01-10T12:54:54;21.10;;;11.93;;
18334;SDS011;9293;49.524;10.964;2024-01-10T12:57:25;21.75;;;11.88;;
18334;SDS011;9293;49.524;10.964;2024-01-10T12:59:53;21.73;;;11.90;;
18334;SDS011;9293;49.524;10.964;2024-01-10T13:02:22;20.83;;;12.85;;
18334;SDS011;9293;49.524;10.964;2024-01-10T13:04:50;24.63;;;13.75;;
18334;SDS011;9293;49.524;10.964;2024-01-10T13:07:19;21.25;;;13.38;;
18334;SDS011;9293;49.524;10.964;2024-01-10T13:09:48;21.40;;;12.65;;
18334;SDS011;9293;49.524;10.964;2024-01-10T13:12:16;19.67;;;11.93;;
18334;SDS011;9293;49.524;10.964;2024-01-10T13:14:44;33.35;;;18.25;;
18334;SDS011;9293;49.524;10.964;2024-01-10T13:17:12;20.17;;;12.90;;
18334;SDS011;9293;49.524;10.964;2024-01-10T13:19:41;20.23;;;11.57;;
18334;SDS011;9293;49.524;10.964;2024-01-10T13:22:13;21.27;;;13.05;;
18334;SDS011;9293;49.524;10.964;2024-01-10T13:24:46;21.10;;;12.15;;
18334;SDS011;9293;49.524;10.964;2024-01-10T13:27:15;21.75;;;12.93;;
18334;SDS011;9293;49.524;10.964;2024-01-10T13:29:47;20.30;;;12.85;;
18334;SDS011;9293;49.524;10.964;2024-01-10T13:32:15;21.98;;;11.82;;
18334;SDS011;9293;49.524;10.964;2024-01-10T13:34:43;20.05;;;11.52;;
18334;SDS011;9293;49.524;10.964;2024-01-10T13:37:11;19.10;;;11.60;;
18334;SDS011;9293;49.524;10.964;2024-01-10T13:39:43;19.23;;;11.57;;
18334;SDS011;9293;49.524;10.964;2024-01-10T13:42:11;19.05;;;11.90;;
18334;SDS011;9293;49.524;10.964;2024-01-10T13:44:39;21.02;;;11.32;;
18334;SDS011;9293;49.524;10.964;2024-01-10T13:47:08;20.83;;;12.45;;
18334;SDS011;9293;49.524;10.964;2024-01-10T13:49:37;19.30;;;11.75;;
18334;SDS011;9293;49.524;10.964;2024-01-10T13:52:05;19.35;;;12.30;;
18334;SDS011;9293;49.524;10.964;2024-01-10T13:54:33;24.13;;;12.05;;
18334;SDS011;9293;49.524;10.964;2024-01-10T13:57:01;23.02;;;13.32;;
18334;SDS011;9293;49.524;10.964;2024-01-10T13:59:30;27.35;;;16.70;;
18334;SDS011;9293;49.524;10.964;2024-01-10T14:01:59;19.67;;;11.88;;
18334;SDS011;9293;49.524;10.964;2024-01-10T14:04:27;20.70;;;11.80;;
18334;SDS011;9293;49.524;10.964;2024-01-10T14:06:56;19.65;;;11.85;;
18334;SDS011;9293;49.524;10.964;2024-01-10T14:09:24;17.98;;;11.35;;
18334;SDS011;9293;49.524;10.964;2024-01-10T14:11:52;19.98;;;12.27;;
18334;SDS011;9293;49.524;10.964;2024-01-10T14:14:20;20.00;;;11.75;;
18334;SDS011;9293;49.524;10.964;2024-01-10T14:19:23;18.77;;;11.27;;
18334;SDS011;9293;49.524;10.964;2024-01-10T14:21:55;21.20;;;11.48;;
18334;SDS011;9293;49.524;10.964;2024-01-10T14:24:26;20.58;;;11.80;;
18334;SDS011;9293;49.524;10.964;2024-01-10T14:29:22;24.08;;;14.35;;
18334;SDS011;9293;49.524;10.964;2024-01-10T14:31:51;19.48;;;11.73;;
18334;SDS011;9293;49.524;10.964;2024-01-10T14:34:39;21.52;;;13.30;;
18334;SDS011;9293;49.524;10.964;2024-01-10T14:37:08;21.48;;;11.32;;
18334;SDS011;9293;49.524;10.964;2024-01-10T14:39:37;19.23;;;12.05;;
18334;SDS011;9293;49.524;10.964;2024-01-10T14:42:06;21.38;;;12.07;;
18334;SDS011;9293;49.524;10.964;2024-01-10T14:44:36;21.30;;;12.10;;
18334;SDS011;9293;49.524;10.964;2024-01-10T14:47:05;22.70;;;12.65;;
18334;SDS011;9293;49.524;10.964;2024-01-10T14:49:38;19.38;;;11.80;;
18334;SDS011;9293;49.524;10.964;2024-01-10T14:52:06;23.48;;;11.63;;
18334;SDS011;9293;49.524;10.964;2024-01-10T14:54:35;22.50;;;13.10;;
18334;SDS011;9293;49.524;10.964;2024-01-10T14:57:03;21.70;;;12.43;;
18334;SDS011;9293;49.524;10.964;2024-01-10T14:59:31;20.40;;;12.10;;
18334;SDS011;9293;49.524;10.964;2024-01-10T15:02:13;20.38;;;12.60;;
18334;SDS011;9293;49.524;10.964;2024-01-10T15:04:46;21.75;;;13.30;;
18334;SDS011;9293;49.524;10.964;2024-01-10T15:07:14;21.70;;;12.73;;